createdAt,value
2019-03-25T00:00:08.925Z,9.30
2019-03-25T00:02:39.670Z,9.30
2019-03-25T00:05:08.897Z,9.20
2019-03-25T00:07:38.204Z,9.20
2019-03-25T00:10:07.326Z,9.20
2019-03-25T00:12:36.521Z,9.20
2019-03-25T00:15:06.603Z,9.20
2019-03-25T00:17:35.878Z,9.20
2019-03-25T00:20:06.229Z,9.20
2019-03-25T00:22:35.362Z,9.20
2019-03-25T00:25:05.805Z,9.20
2019-03-25T00:27:34.941Z,9.20
2019-03-25T00:30:04.430Z,9.10
2019-03-25T00:32:33.568Z,9.00
2019-03-25T00:35:02.689Z,9.00
2019-03-25T00:37:33.494Z,9.00
2019-03-25T00:40:02.662Z,9.00
2019-03-25T00:42:31.790Z,8.90
2019-03-25T00:45:00.905Z,8.90
2019-03-25T00:47:30.030Z,8.90
2019-03-25T00:49:59.152Z,8.90
2019-03-25T00:52:28.288Z,8.90
2019-03-25T00:54:57.417Z,8.80
2019-03-25T00:57:26.576Z,8.70
2019-03-25T00:59:55.688Z,8.70
2019-03-25T01:02:24.900Z,8.70
2019-03-25T01:04:54.021Z,8.60
2019-03-25T01:07:23.150Z,8.50
2019-03-25T01:09:52.268Z,8.50
2019-03-25T01:12:21.568Z,8.50
2019-03-25T01:14:50.689Z,8.50
2019-03-25T01:17:19.829Z,8.40
2019-03-25T01:19:48.940Z,8.40
2019-03-25T01:22:18.077Z,8.40
2019-03-25T01:24:47.194Z,8.30
2019-03-25T01:27:16.322Z,8.30
2019-03-25T01:29:45.432Z,8.40
2019-03-25T01:32:14.641Z,8.50
2019-03-25T01:34:43.769Z,8.50
2019-03-25T01:37:12.889Z,8.50
2019-03-25T01:39:42.012Z,8.50
2019-03-25T01:42:11.592Z,8.60
2019-03-25T01:44:40.849Z,8.60
2019-03-25T01:47:09.958Z,8.50
2019-03-25T01:49:39.082Z,8.50
2019-03-25T01:52:08.273Z,8.50
2019-03-25T01:54:37.400Z,8.40
2019-03-25T01:57:06.525Z,8.50
2019-03-25T01:59:35.664Z,8.50
2019-03-25T02:02:04.769Z,8.50
2019-03-25T02:04:33.914Z,8.40
2019-03-25T02:07:13.811Z,8.40
2019-03-25T02:09:43.015Z,8.30
2019-03-25T02:12:12.137Z,8.20
2019-03-25T02:14:41.272Z,8.20
2019-03-25T02:17:10.400Z,8.10
2019-03-25T02:19:39.610Z,8.10
2019-03-25T02:22:08.740Z,8.00
2019-03-25T02:24:37.959Z,7.90
2019-03-25T02:27:07.078Z,7.90
2019-03-25T02:29:37.177Z,7.80
2019-03-25T02:32:06.305Z,7.80
2019-03-25T02:34:35.454Z,7.70
2019-03-25T02:37:04.573Z,7.60
2019-03-25T02:39:33.705Z,7.50
2019-03-25T02:42:02.851Z,7.50
2019-03-25T02:44:31.966Z,7.40
2019-03-25T02:47:01.174Z,7.30
2019-03-25T02:49:30.284Z,7.30
2019-03-25T02:51:59.495Z,7.30
2019-03-25T02:54:28.714Z,7.30
2019-03-25T02:56:57.847Z,7.20
2019-03-25T02:59:26.961Z,7.10
2019-03-25T03:01:56.098Z,7.10
2019-03-25T03:04:26.196Z,7.20
2019-03-25T03:06:55.351Z,7.20
2019-03-25T03:09:24.449Z,7.20
2019-03-25T03:11:53.580Z,7.20
2019-03-25T03:14:22.688Z,7.10
2019-03-25T03:16:51.822Z,7.10
2019-03-25T03:19:20.954Z,7.00
2019-03-25T03:21:50.065Z,6.90
2019-03-25T03:24:19.234Z,6.90
2019-03-25T03:26:48.439Z,6.90
2019-03-25T03:29:17.630Z,7.00
2019-03-25T03:31:46.758Z,7.00
2019-03-25T03:34:15.899Z,6.90
2019-03-25T03:36:45.023Z,6.90
2019-03-25T03:39:14.140Z,6.70
2019-03-25T03:41:43.264Z,6.60
2019-03-25T03:44:12.394Z,6.50
2019-03-25T03:46:41.520Z,6.40
2019-03-25T03:49:10.669Z,6.40
2019-03-25T03:51:39.794Z,6.30
2019-03-25T03:54:08.930Z,6.20
2019-03-25T03:56:38.033Z,6.20
2019-03-25T03:59:07.180Z,6.10
2019-03-25T04:01:36.288Z,6.10
2019-03-25T04:04:05.409Z,6.00
2019-03-25T04:06:34.532Z,6.00
2019-03-25T04:09:04.794Z,5.90
2019-03-25T04:11:33.901Z,5.80
2019-03-25T04:14:03.223Z,5.60
2019-03-25T04:16:32.425Z,5.50
2019-03-25T04:19:14.191Z,5.50
2019-03-25T04:21:43.357Z,5.50
2019-03-25T04:24:12.487Z,5.40
2019-03-25T04:26:41.610Z,5.40
2019-03-25T04:29:10.741Z,5.40
2019-03-25T04:31:39.855Z,5.30
2019-03-25T04:34:29.481Z,5.30
2019-03-25T04:36:58.614Z,5.30
2019-03-25T04:39:27.738Z,5.20
2019-03-25T04:41:56.858Z,5.10
2019-03-25T04:44:25.964Z,5.00
2019-03-25T04:46:55.120Z,5.00
2019-03-25T04:49:24.317Z,4.90
2019-03-25T04:51:53.445Z,4.90
2019-03-25T04:54:22.561Z,4.90
2019-03-25T04:56:51.795Z,4.80
2019-03-25T04:59:20.903Z,4.80
2019-03-25T05:01:50.035Z,4.80
2019-03-25T05:04:19.196Z,4.80
2019-03-25T05:06:48.307Z,4.70
2019-03-25T05:09:17.449Z,4.60
2019-03-25T05:11:46.578Z,4.50
2019-03-25T05:14:15.697Z,4.40
2019-03-25T05:16:44.855Z,4.30
2019-03-25T05:19:13.965Z,4.20
2019-03-25T05:21:43.086Z,4.10
2019-03-25T05:24:12.213Z,4.10
2019-03-25T05:26:50.689Z,4.10
2019-03-25T05:29:12.164Z,4.30
2019-03-25T05:31:41.300Z,4.30
2019-03-25T05:34:10.406Z,4.40
2019-03-25T05:36:39.573Z,4.50
2019-03-25T05:39:09.352Z,4.60
2019-03-25T05:41:38.579Z,4.70
2019-03-25T05:44:07.684Z,4.70
2019-03-25T05:46:36.817Z,4.70
2019-03-25T05:49:05.970Z,4.80
2019-03-25T05:51:35.100Z,4.80
2019-03-25T05:54:04.337Z,4.80
2019-03-25T05:56:33.473Z,4.80
2019-03-25T05:59:02.621Z,4.90
2019-03-25T06:01:31.732Z,5.00
2019-03-25T06:04:00.888Z,5.10
2019-03-25T06:06:30.000Z,5.20
2019-03-25T06:08:59.135Z,5.40
2019-03-25T06:11:28.240Z,5.50
2019-03-25T06:13:57.424Z,5.60
2019-03-25T06:16:26.562Z,6.00
2019-03-25T06:18:55.698Z,6.60
2019-03-25T06:21:24.821Z,6.70
2019-03-25T06:23:53.952Z,7.20
2019-03-25T06:26:23.071Z,7.30
2019-03-25T06:28:52.206Z,7.60
2019-03-25T06:31:21.333Z,8.20
2019-03-25T06:33:50.460Z,8.20
2019-03-25T06:36:19.573Z,8.10
2019-03-25T06:38:48.720Z,8.10
2019-03-25T06:41:17.841Z,8.10
2019-03-25T06:43:46.976Z,8.10
2019-03-25T06:46:16.080Z,8.00
2019-03-25T06:48:45.478Z,7.90
2019-03-25T06:51:14.658Z,7.90
2019-03-25T06:53:43.813Z,7.80
2019-03-25T06:56:12.945Z,7.70
2019-03-25T06:58:42.059Z,7.70
2019-03-25T07:01:11.208Z,7.70
2019-03-25T07:03:40.479Z,7.80
2019-03-25T07:06:09.619Z,8.10
2019-03-25T07:08:38.732Z,8.20
2019-03-25T07:11:07.864Z,8.30
2019-03-25T07:13:36.989Z,8.50
2019-03-25T07:16:06.157Z,8.50
2019-03-25T07:18:35.267Z,8.60
2019-03-25T07:21:04.401Z,8.60
2019-03-25T07:23:33.521Z,8.60
2019-03-25T07:26:02.740Z,8.50
2019-03-25T07:28:31.858Z,8.40
2019-03-25T07:31:00.982Z,8.40
2019-03-25T07:33:30.113Z,8.40
2019-03-25T07:35:59.243Z,8.40
2019-03-25T07:38:28.353Z,8.40
2019-03-25T07:40:57.486Z,8.30
2019-03-25T07:43:26.622Z,8.30
2019-03-25T07:45:55.756Z,8.20
2019-03-25T07:48:24.904Z,8.20
2019-03-25T07:50:54.012Z,8.30
2019-03-25T07:53:23.158Z,8.30
2019-03-25T07:55:52.287Z,8.40
2019-03-25T07:58:21.451Z,8.30
2019-03-25T08:00:50.639Z,8.30
2019-03-25T08:03:19.797Z,8.40
2019-03-25T08:05:48.993Z,8.40
2019-03-25T08:08:18.150Z,8.40
2019-03-25T08:10:47.330Z,8.30
2019-03-25T08:13:16.528Z,8.50
2019-03-25T08:15:45.905Z,8.50
2019-03-25T08:18:15.103Z,8.30
2019-03-25T08:20:44.225Z,8.40
2019-03-25T08:23:13.409Z,8.40
2019-03-25T08:25:42.592Z,8.40
2019-03-25T08:28:12.889Z,8.30
2019-03-25T08:30:42.028Z,8.40
2019-03-25T08:33:11.175Z,8.40
2019-03-25T08:35:40.318Z,8.40
2019-03-25T08:38:09.496Z,8.40
2019-03-25T08:40:39.612Z,8.40
2019-03-25T08:43:08.745Z,8.50
2019-03-25T08:45:37.933Z,8.50
2019-03-25T08:48:07.053Z,8.60
2019-03-25T08:50:36.182Z,8.60
2019-03-25T08:53:05.425Z,8.70
2019-03-25T08:55:34.561Z,8.90
2019-03-25T08:58:12.126Z,8.60
2019-03-25T09:00:34.509Z,8.40
2019-03-25T09:03:03.660Z,8.20
2019-03-25T09:05:32.845Z,8.10
2019-03-25T09:08:01.961Z,8.30
2019-03-25T09:10:31.112Z,8.50
2019-03-25T09:13:00.248Z,8.50
2019-03-25T09:15:29.412Z,8.60
2019-03-25T09:17:58.656Z,8.70
2019-03-25T09:20:27.913Z,8.80
2019-03-25T09:22:57.111Z,8.70
2019-03-25T09:25:26.297Z,8.60
2019-03-25T09:27:55.477Z,8.70
2019-03-25T09:30:53.653Z,8.70
2019-03-25T09:33:22.842Z,8.60
2019-03-25T09:35:52.184Z,8.70
2019-03-25T09:38:22.524Z,8.60
2019-03-25T09:40:51.717Z,8.50
2019-03-25T09:43:21.017Z,8.50
2019-03-25T09:45:51.439Z,8.30
2019-03-25T09:48:20.588Z,8.40
2019-03-25T09:50:49.714Z,8.60
2019-03-25T09:53:18.830Z,8.60
2019-03-25T09:55:47.977Z,8.70
2019-03-25T09:58:17.108Z,8.80
2019-03-25T10:00:46.257Z,9.10
2019-03-25T10:03:15.381Z,9.50
2019-03-25T10:05:44.495Z,9.70
2019-03-25T10:08:13.629Z,10.00
2019-03-25T10:10:43.869Z,10.60
2019-03-25T10:13:13.009Z,11.00
2019-03-25T10:15:42.144Z,11.20
2019-03-25T10:18:11.302Z,10.90
2019-03-25T10:20:40.489Z,11.00
2019-03-25T10:23:09.643Z,10.80
2019-03-25T10:25:38.764Z,10.60
2019-03-25T10:28:07.906Z,10.20
2019-03-25T10:30:37.028Z,9.90
2019-03-25T10:33:06.160Z,9.80
2019-03-25T10:35:35.288Z,10.30
2019-03-25T10:38:04.425Z,11.10
2019-03-25T10:40:33.555Z,11.30
2019-03-25T10:43:02.687Z,10.90
2019-03-25T10:45:31.809Z,10.40
2019-03-25T10:48:00.958Z,10.20
2019-03-25T10:50:30.091Z,11.00
2019-03-25T10:52:59.235Z,11.90
2019-03-25T10:55:28.342Z,12.40
2019-03-25T10:57:57.495Z,11.70
2019-03-25T11:00:26.615Z,11.00
2019-03-25T11:02:55.740Z,11.10
2019-03-25T11:05:24.952Z,12.00
2019-03-25T11:07:54.409Z,12.60
2019-03-25T11:10:23.604Z,13.30
2019-03-25T11:12:52.714Z,13.30
2019-03-25T11:15:21.854Z,13.40
2019-03-25T11:17:50.992Z,13.50
2019-03-25T11:20:20.154Z,13.30
2019-03-25T11:22:49.313Z,12.90
2019-03-25T11:25:18.451Z,12.90
2019-03-25T11:27:54.267Z,13.30
2019-03-25T11:30:21.725Z,13.60
2019-03-25T11:32:50.916Z,13.20
2019-03-25T11:35:20.053Z,13.50
2019-03-25T11:37:49.162Z,14.10
2019-03-25T11:40:18.317Z,14.10
2019-03-25T11:42:47.422Z,14.00
2019-03-25T11:45:16.558Z,14.50
2019-03-25T11:47:45.708Z,14.90
2019-03-25T11:50:14.889Z,13.80
2019-03-25T11:52:45.642Z,12.40
2019-03-25T11:55:14.789Z,11.60
2019-03-25T11:57:43.913Z,11.20
2019-03-25T12:00:14.679Z,10.90
2019-03-25T12:02:43.812Z,10.40
2019-03-25T12:05:12.945Z,10.10
2019-03-25T12:07:43.146Z,9.80
2019-03-25T12:10:12.288Z,9.60
2019-03-25T12:12:41.429Z,9.60
2019-03-25T12:15:10.546Z,10.80
2019-03-25T12:17:39.756Z,12.40
2019-03-25T12:20:09.283Z,13.70
2019-03-25T12:22:38.460Z,14.80
2019-03-25T12:25:07.580Z,15.30
2019-03-25T12:27:36.731Z,14.60
2019-03-25T12:30:07.883Z,14.00
2019-03-25T12:32:37.064Z,13.40
2019-03-25T12:35:06.764Z,12.80
2019-03-25T12:37:35.910Z,12.20
2019-03-25T12:40:07.778Z,11.80
2019-03-25T12:42:36.324Z,11.60
2019-03-25T12:45:06.695Z,12.20
2019-03-25T12:47:35.859Z,12.70
2019-03-25T12:50:07.009Z,13.80
2019-03-25T12:52:36.153Z,14.80
2019-03-25T12:55:05.502Z,15.30
2019-03-25T12:57:34.630Z,15.30
2019-03-25T13:00:06.540Z,14.80
2019-03-25T13:02:35.680Z,13.90
2019-03-25T13:05:06.056Z,13.40
2019-03-25T13:07:35.198Z,13.50
2019-03-25T13:10:05.905Z,13.50
2019-03-25T13:12:36.128Z,13.50
2019-03-25T13:15:07.171Z,13.30
2019-03-25T13:17:36.301Z,12.50
2019-03-25T13:20:06.188Z,11.90
2019-03-25T13:22:36.412Z,11.40
2019-03-25T13:25:05.798Z,11.10
2019-03-25T13:27:34.956Z,11.00
2019-03-25T13:30:06.522Z,10.80
2019-03-25T13:32:35.705Z,10.20
2019-03-25T13:35:07.853Z,9.90
2019-03-25T13:37:36.961Z,9.80
2019-03-25T13:40:06.857Z,9.60
2019-03-25T13:42:35.994Z,8.70
2019-03-25T13:45:06.484Z,8.10
2019-03-25T13:47:35.606Z,7.60
2019-03-25T13:50:05.999Z,7.40
2019-03-25T13:52:35.159Z,7.30
2019-03-25T13:55:05.421Z,7.30
2019-03-25T13:57:34.549Z,8.00
2019-03-25T14:00:04.929Z,9.40
2019-03-25T14:02:34.025Z,11.00
2019-03-25T14:05:03.173Z,11.80
2019-03-25T14:07:32.317Z,11.80
2019-03-25T14:10:01.453Z,11.40
2019-03-25T14:12:31.747Z,11.50
2019-03-25T14:15:00.888Z,11.80
2019-03-25T14:17:30.087Z,11.80
2019-03-25T14:19:59.241Z,11.70
2019-03-25T14:22:28.365Z,11.30
2019-03-25T14:24:57.477Z,11.00
2019-03-25T14:27:26.619Z,11.40
2019-03-25T14:29:55.761Z,12.00
2019-03-25T14:32:24.920Z,12.60
2019-03-25T14:34:54.070Z,13.50
2019-03-25T14:37:23.180Z,14.20
2019-03-25T14:39:52.312Z,14.40
2019-03-25T14:42:21.447Z,13.80
2019-03-25T14:44:50.569Z,13.90
2019-03-25T14:47:19.719Z,14.00
2019-03-25T14:49:48.950Z,14.50
2019-03-25T14:52:18.141Z,14.80
2019-03-25T14:54:47.257Z,14.80
2019-03-25T14:57:16.465Z,14.90
2019-03-25T14:59:45.631Z,14.90
2019-03-25T15:02:14.755Z,14.80
2019-03-25T15:04:43.882Z,14.00
2019-03-25T15:07:13.122Z,12.80
2019-03-25T15:09:42.249Z,11.80
2019-03-25T15:12:11.397Z,11.20
2019-03-25T15:14:40.605Z,10.80
2019-03-25T15:17:09.730Z,10.50
2019-03-25T15:19:38.847Z,10.20
2019-03-25T15:22:08.073Z,9.80
2019-03-25T15:24:37.202Z,9.50
2019-03-25T15:27:07.992Z,9.00
2019-03-25T15:29:37.109Z,8.70
2019-03-25T15:32:06.220Z,8.60
2019-03-25T15:34:35.353Z,8.60
2019-03-25T15:37:04.483Z,8.60
2019-03-25T15:39:33.645Z,8.70
2019-03-25T15:42:02.782Z,8.50
2019-03-25T15:44:32.160Z,8.40
2019-03-25T15:47:01.388Z,8.60
2019-03-25T15:49:30.509Z,8.80
2019-03-25T15:51:59.652Z,9.50
2019-03-25T15:54:28.768Z,9.70
2019-03-25T15:56:57.899Z,9.90
2019-03-25T15:59:27.045Z,10.00
2019-03-25T16:01:56.274Z,9.90
2019-03-25T16:04:25.409Z,9.90
2019-03-25T16:06:54.525Z,9.60
2019-03-25T16:09:23.654Z,9.30
2019-03-25T16:11:52.789Z,9.30
2019-03-25T16:14:31.010Z,9.40
2019-03-25T16:17:00.121Z,9.50
2019-03-25T16:19:29.295Z,9.40
2019-03-25T16:21:58.443Z,9.20
2019-03-25T16:24:27.570Z,9.10
2019-03-25T16:26:56.673Z,9.10
2019-03-25T16:29:25.813Z,9.30
2019-03-25T16:31:55.062Z,9.30
2019-03-25T16:34:24.259Z,9.10
2019-03-25T16:36:53.396Z,9.10
2019-03-25T16:39:22.516Z,9.00
2019-03-25T16:41:51.652Z,9.00
2019-03-25T16:44:20.768Z,8.80
2019-03-25T16:46:49.955Z,8.80
2019-03-25T16:49:19.073Z,8.60
2019-03-25T16:51:48.205Z,8.50
2019-03-25T16:54:17.329Z,8.40
2019-03-25T16:56:46.533Z,8.40
2019-03-25T16:59:28.147Z,8.30
2019-03-25T17:01:57.367Z,8.30
2019-03-25T17:04:26.586Z,8.30
2019-03-25T17:06:55.725Z,8.30
2019-03-25T17:09:24.844Z,8.20
2019-03-25T17:11:53.978Z,8.10
2019-03-25T17:14:23.131Z,8.10
2019-03-25T17:16:52.285Z,8.10
2019-03-25T17:19:22.507Z,8.00
2019-03-25T17:21:58.097Z,7.90
2019-03-25T17:24:23.535Z,7.80
2019-03-25T17:26:52.751Z,7.70
2019-03-25T17:29:21.872Z,7.70
2019-03-25T17:31:51.002Z,7.70
2019-03-25T17:34:20.206Z,7.80
2019-03-25T17:36:49.452Z,7.70
2019-03-25T17:39:18.612Z,7.70
2019-03-25T17:41:47.781Z,7.70
2019-03-25T17:44:16.984Z,7.70
2019-03-25T17:46:46.157Z,7.70
2019-03-25T17:49:15.271Z,7.80
2019-03-25T17:51:44.424Z,7.80
2019-03-25T17:54:13.538Z,7.80
2019-03-25T17:56:42.670Z,7.80
2019-03-25T17:59:11.821Z,7.80
2019-03-25T18:01:40.955Z,7.80
2019-03-25T18:04:10.112Z,7.80
2019-03-25T18:06:39.230Z,7.80
2019-03-25T18:09:08.371Z,7.70
2019-03-25T18:11:37.546Z,7.70
2019-03-25T18:14:06.694Z,7.70
2019-03-25T18:16:35.880Z,7.70
2019-03-25T18:19:05.029Z,7.80
2019-03-25T18:21:34.237Z,7.90
2019-03-25T18:24:03.371Z,7.90
2019-03-25T18:26:32.506Z,7.90
2019-03-25T18:29:01.665Z,7.90
2019-03-25T18:31:30.827Z,7.90
2019-03-25T18:34:00.071Z,7.90
2019-03-25T18:36:29.184Z,7.80
2019-03-25T18:38:58.336Z,7.80
2019-03-25T18:41:27.439Z,7.70
2019-03-25T18:43:56.599Z,7.50
2019-03-25T18:46:25.717Z,7.30
2019-03-25T18:48:54.868Z,7.20
2019-03-25T18:51:24.751Z,7.00
2019-03-25T18:53:53.956Z,6.80
2019-03-25T18:56:23.134Z,6.60
2019-03-25T18:58:52.322Z,6.40
2019-03-25T19:01:21.491Z,6.30
2019-03-25T19:03:50.639Z,6.30
2019-03-25T19:06:19.829Z,6.20
2019-03-25T19:08:49.144Z,6.10
2019-03-25T19:11:18.298Z,6.10
2019-03-25T19:13:47.541Z,6.00
2019-03-25T19:16:16.726Z,5.90
2019-03-25T19:18:45.855Z,5.70
2019-03-25T19:21:14.954Z,5.70
2019-03-25T19:23:44.100Z,5.60
2019-03-25T19:26:13.253Z,5.60
2019-03-25T19:28:42.359Z,5.50
2019-03-25T19:31:11.519Z,5.40
2019-03-25T19:33:40.669Z,5.30
2019-03-25T19:36:09.883Z,5.20
2019-03-25T19:38:39.115Z,5.10
2019-03-25T19:41:08.288Z,5.10
2019-03-25T19:43:37.490Z,5.10
2019-03-25T19:46:06.644Z,5.10
2019-03-25T19:48:35.929Z,5.10
2019-03-25T19:51:05.121Z,5.20
2019-03-25T19:53:34.348Z,5.20
2019-03-25T19:56:03.541Z,5.20
2019-03-25T19:58:32.674Z,5.30
2019-03-25T20:01:01.793Z,5.30
2019-03-25T20:03:32.995Z,5.20
2019-03-25T20:06:01.858Z,5.20
2019-03-25T20:08:31.076Z,5.10
2019-03-25T20:11:00.496Z,5.10
2019-03-25T20:13:30.718Z,5.10
2019-03-25T20:15:59.873Z,5.10
2019-03-25T20:18:29.030Z,5.20
2019-03-25T20:20:58.229Z,5.20
2019-03-25T20:23:27.366Z,5.30
2019-03-25T20:25:56.578Z,5.30
2019-03-25T20:28:25.731Z,5.30
2019-03-25T20:30:54.953Z,5.40
2019-03-25T20:33:24.194Z,5.40
2019-03-25T20:35:53.363Z,5.40
2019-03-25T20:38:22.547Z,5.40
2019-03-25T20:40:51.755Z,5.50
2019-03-25T20:43:20.933Z,5.50
2019-03-25T20:45:50.156Z,5.50
2019-03-25T20:48:19.365Z,5.50
2019-03-25T20:50:49.450Z,5.40
2019-03-25T20:53:18.884Z,5.40
2019-03-25T20:55:48.026Z,5.30
2019-03-25T20:58:17.242Z,5.30
2019-03-25T21:00:47.838Z,5.30
2019-03-25T21:03:17.184Z,5.30
2019-03-25T21:05:46.429Z,5.20
2019-03-25T21:08:15.713Z,5.20
2019-03-25T21:10:44.977Z,5.20
2019-03-25T21:13:14.287Z,5.20
2019-03-25T21:15:43.499Z,5.10
2019-03-25T21:18:12.669Z,5.10
2019-03-25T21:20:42.813Z,5.10
2019-03-25T21:23:24.336Z,5.00
2019-03-25T21:25:53.545Z,5.00
2019-03-25T21:28:22.752Z,4.90
2019-03-25T21:30:52.138Z,4.90
2019-03-25T21:33:21.345Z,4.90
2019-03-25T21:35:50.641Z,4.90
2019-03-25T21:38:20.874Z,4.80
2019-03-25T21:40:50.001Z,4.80
2019-03-25T21:43:19.134Z,4.80
2019-03-25T21:45:48.408Z,4.70
2019-03-25T21:48:17.867Z,4.70
2019-03-25T21:50:47.111Z,4.60
2019-03-25T21:53:16.418Z,4.70
2019-03-25T21:55:45.637Z,4.60
2019-03-25T21:58:14.872Z,4.60
2019-03-25T22:00:44.129Z,4.60
2019-03-25T22:03:13.336Z,4.60
2019-03-25T22:05:42.549Z,4.70
2019-03-25T22:08:11.720Z,4.60
2019-03-25T22:10:43.055Z,4.70
2019-03-25T22:13:11.792Z,4.70
2019-03-25T22:15:40.937Z,4.60
2019-03-25T22:18:10.073Z,4.70
2019-03-25T22:20:39.219Z,4.80
2019-03-25T22:23:08.409Z,4.80
2019-03-25T22:25:37.548Z,4.90
2019-03-25T22:28:06.687Z,4.90
2019-03-25T22:30:35.822Z,4.90
2019-03-25T22:33:04.967Z,5.00
2019-03-25T22:35:34.089Z,5.00
2019-03-25T22:38:03.285Z,5.10
2019-03-25T22:40:32.408Z,5.10
2019-03-25T22:43:01.564Z,5.00
2019-03-25T22:45:30.745Z,5.00
2019-03-25T22:47:59.874Z,4.90
2019-03-25T22:50:32.229Z,4.90
2019-03-25T22:53:01.361Z,4.90
2019-03-25T22:55:30.483Z,4.80
2019-03-25T22:57:59.620Z,4.80
2019-03-25T23:00:42.365Z,4.70
2019-03-25T23:03:11.778Z,4.70
2019-03-25T23:05:41.997Z,4.60
2019-03-25T23:08:11.227Z,4.50
2019-03-25T23:10:40.329Z,4.50
2019-03-25T23:13:09.460Z,4.40
2019-03-25T23:15:38.577Z,4.40
2019-03-25T23:18:07.709Z,4.30
2019-03-25T23:20:36.819Z,4.20
2019-03-25T23:23:05.958Z,4.20
2019-03-25T23:25:35.950Z,4.20
2019-03-25T23:28:05.263Z,4.20
2019-03-25T23:30:34.445Z,4.20
2019-03-25T23:33:03.577Z,4.20
2019-03-25T23:35:32.759Z,4.20
2019-03-25T23:38:01.989Z,4.20
2019-03-25T23:40:31.206Z,4.20
2019-03-25T23:43:00.304Z,4.10
2019-03-25T23:45:29.448Z,4.00
2019-03-25T23:47:58.600Z,4.00
2019-03-25T23:50:27.796Z,3.90
2019-03-25T23:52:56.905Z,3.90
2019-03-25T23:55:26.039Z,3.90
2019-03-25T23:57:55.173Z,3.80
